sensor_id;sensor_type;location;lat;lon;timestamp;P1;durP1;ratioP1;P2;durP2;ratioP2
74363;SDS011;62797;49.740;10.154;2023-04-06T00:01:00;34.20;;;15.85;;
74363;SDS011;62797;49.740;10.154;2023-04-06T00:03:26;29.73;;;16.55;;
74363;SDS011;62797;49.740;10.154;2023-04-06T00:05:51;33.33;;;17.30;;
74363;SDS011;62797;49.740;10.154;2023-04-06T00:08:17;28.05;;;16.02;;
74363;SDS011;62797;49.740;10.154;2023-04-06T00:10:43;31.17;;;16.02;;
74363;SDS011;62797;49.740;10.154;2023-04-06T00:13:09;32.47;;;18.20;;
74363;SDS011;62797;49.740;10.154;2023-04-06T00:15:35;30.98;;;16.25;;
74363;SDS011;62797;49.740;10.154;2023-04-06T00:18:01;34.85;;;16.92;;
74363;SDS011;62797;49.740;10.154;2023-04-06T00:20:28;34.95;;;19.23;;
74363;SDS011;62797;49.740;10.154;2023-04-06T00:22:53;30.00;;;17.23;;
74363;SDS011;62797;49.740;10.154;2023-04-06T00:25:19;39.65;;;18.05;;
74363;SDS011;62797;49.740;10.154;2023-04-06T00:27:45;36.20;;;17.45;;
74363;SDS011;62797;49.740;10.154;2023-04-06T00:30:11;28.83;;;14.77;;
74363;SDS011;62797;49.740;10.154;2023-04-06T00:32:36;33.90;;;18.73;;
74363;SDS011;62797;49.740;10.154;2023-04-06T00:35:05;31.40;;;17.08;;
74363;SDS011;62797;49.740;10.154;2023-04-06T00:37:31;36.65;;;17.90;;
74363;SDS011;62797;49.740;10.154;2023-04-06T00:39:57;39.33;;;21.27;;
74363;SDS011;62797;49.740;10.154;2023-04-06T00:42:23;31.85;;;17.42;;
74363;SDS011;62797;49.740;10.154;2023-04-06T00:44:56;30.42;;;17.33;;
74363;SDS011;62797;49.740;10.154;2023-04-06T00:47:23;29.90;;;16.55;;
74363;SDS011;62797;49.740;10.154;2023-04-06T00:49:56;31.55;;;16.58;;
74363;SDS011;62797;49.740;10.154;2023-04-06T00:52:22;31.17;;;17.48;;
74363;SDS011;62797;49.740;10.154;2023-04-06T00:54:49;31.73;;;16.73;;
74363;SDS011;62797;49.740;10.154;2023-04-06T00:57:17;32.55;;;15.73;;
74363;SDS011;62797;49.740;10.154;2023-04-06T00:59:45;26.33;;;14.48;;
74363;SDS011;62797;49.740;10.154;2023-04-06T01:02:12;28.80;;;14.88;;
74363;SDS011;62797;49.740;10.154;2023-04-06T01:04:46;31.63;;;15.63;;
74363;SDS011;62797;49.740;10.154;2023-04-06T01:07:21;33.42;;;17.30;;
74363;SDS011;62797;49.740;10.154;2023-04-06T01:10:01;31.27;;;17.10;;
74363;SDS011;62797;49.740;10.154;2023-04-06T01:12:29;30.30;;;15.93;;
74363;SDS011;62797;49.740;10.154;2023-04-06T01:14:56;34.45;;;17.25;;
74363;SDS011;62797;49.740;10.154;2023-04-06T01:17:22;34.45;;;18.83;;
74363;SDS011;62797;49.740;10.154;2023-04-06T01:19:48;32.35;;;15.60;;
74363;SDS011;62797;49.740;10.154;2023-04-06T01:22:23;34.35;;;17.30;;
74363;SDS011;62797;49.740;10.154;2023-04-06T01:24:58;31.75;;;16.50;;
74363;SDS011;62797;49.740;10.154;2023-04-06T01:27:32;32.67;;;17.13;;
74363;SDS011;62797;49.740;10.154;2023-04-06T01:30:18;33.10;;;16.40;;
74363;SDS011;62797;49.740;10.154;2023-04-06T01:32:51;27.52;;;14.48;;
74363;SDS011;62797;49.740;10.154;2023-04-06T01:35:29;34.95;;;18.15;;
74363;SDS011;62797;49.740;10.154;2023-04-06T01:38:09;28.42;;;15.68;;
74363;SDS011;62797;49.740;10.154;2023-04-06T01:40:35;33.03;;;17.17;;
74363;SDS011;62797;49.740;10.154;2023-04-06T01:43:01;40.83;;;18.45;;
74363;SDS011;62797;49.740;10.154;2023-04-06T01:45:47;31.33;;;16.50;;
74363;SDS011;62797;49.740;10.154;2023-04-06T01:48:17;31.77;;;16.50;;
74363;SDS011;62797;49.740;10.154;2023-04-06T01:50:43;28.90;;;13.88;;
74363;SDS011;62797;49.740;10.154;2023-04-06T01:53:14;30.95;;;15.70;;
74363;SDS011;62797;49.740;10.154;2023-04-06T01:55:41;26.88;;;14.88;;
74363;SDS011;62797;49.740;10.154;2023-04-06T01:58:36;31.10;;;17.80;;
74363;SDS011;62797;49.740;10.154;2023-04-06T02:01:02;33.75;;;16.98;;
74363;SDS011;62797;49.740;10.154;2023-04-06T02:03:35;27.23;;;15.38;;
74363;SDS011;62797;49.740;10.154;2023-04-06T02:06:06;30.70;;;15.77;;
74363;SDS011;62797;49.740;10.154;2023-04-06T02:08:36;34.75;;;17.27;;
74363;SDS011;62797;49.740;10.154;2023-04-06T02:11:04;36.20;;;18.95;;
74363;SDS011;62797;49.740;10.154;2023-04-06T02:13:37;37.45;;;18.73;;
74363;SDS011;62797;49.740;10.154;2023-04-06T02:16:04;37.50;;;19.67;;
74363;SDS011;62797;49.740;10.154;2023-04-06T02:18:30;43.65;;;19.92;;
74363;SDS011;62797;49.740;10.154;2023-04-06T02:20:56;44.53;;;18.38;;
74363;SDS011;62797;49.740;10.154;2023-04-06T02:23:22;33.25;;;18.05;;
74363;SDS011;62797;49.740;10.154;2023-04-06T02:25:47;40.38;;;17.25;;
74363;SDS011;62797;49.740;10.154;2023-04-06T02:28:13;33.95;;;19.23;;
74363;SDS011;62797;49.740;10.154;2023-04-06T02:30:38;34.75;;;18.80;;
74363;SDS011;62797;49.740;10.154;2023-04-06T02:33:04;34.55;;;16.55;;
74363;SDS011;62797;49.740;10.154;2023-04-06T02:35:38;33.10;;;16.30;;
74363;SDS011;62797;49.740;10.154;2023-04-06T02:38:04;31.48;;;16.23;;
74363;SDS011;62797;49.740;10.154;2023-04-06T02:40:30;37.70;;;16.85;;
74363;SDS011;62797;49.740;10.154;2023-04-06T02:43:00;29.83;;;14.30;;
74363;SDS011;62797;49.740;10.154;2023-04-06T02:45:29;37.70;;;18.25;;
74363;SDS011;62797;49.740;10.154;2023-04-06T02:47:55;36.65;;;17.50;;
74363;SDS011;62797;49.740;10.154;2023-04-06T02:50:22;40.72;;;19.38;;
74363;SDS011;62797;49.740;10.154;2023-04-06T02:52:55;32.83;;;17.67;;
74363;SDS011;62797;49.740;10.154;2023-04-06T02:57:48;32.55;;;16.85;;
74363;SDS011;62797;49.740;10.154;2023-04-06T03:00:15;27.83;;;15.15;;
74363;SDS011;62797;49.740;10.154;2023-04-06T03:02:41;37.38;;;18.60;;
74363;SDS011;62797;49.740;10.154;2023-04-06T03:05:11;33.22;;;15.88;;
74363;SDS011;62797;49.740;10.154;2023-04-06T03:07:40;37.83;;;17.33;;
74363;SDS011;62797;49.740;10.154;2023-04-06T03:10:11;32.63;;;16.67;;
74363;SDS011;62797;49.740;10.154;2023-04-06T03:12:36;34.33;;;17.25;;
74363;SDS011;62797;49.740;10.154;2023-04-06T03:15:12;32.50;;;17.88;;
74363;SDS011;62797;49.740;10.154;2023-04-06T03:17:42;38.67;;;17.65;;
74363;SDS011;62797;49.740;10.154;2023-04-06T03:20:15;40.55;;;19.88;;
74363;SDS011;62797;49.740;10.154;2023-04-06T03:22:41;36.15;;;16.05;;
74363;SDS011;62797;49.740;10.154;2023-04-06T03:25:09;34.83;;;18.80;;
74363;SDS011;62797;49.740;10.154;2023-04-06T03:27:35;38.95;;;19.67;;
74363;SDS011;62797;49.740;10.154;2023-04-06T03:30:02;33.88;;;18.75;;
74363;SDS011;62797;49.740;10.154;2023-04-06T03:32:32;37.38;;;18.80;;
74363;SDS011;62797;49.740;10.154;2023-04-06T03:34:58;35.63;;;17.17;;
74363;SDS011;62797;49.740;10.154;2023-04-06T03:37:24;38.90;;;18.80;;
74363;SDS011;62797;49.740;10.154;2023-04-06T03:39:53;47.17;;;23.13;;
74363;SDS011;62797;49.740;10.154;2023-04-06T03:42:22;47.90;;;19.92;;
74363;SDS011;62797;49.740;10.154;2023-04-06T03:44:51;36.63;;;16.45;;
74363;SDS011;62797;49.740;10.154;2023-04-06T03:49:43;40.63;;;16.58;;
74363;SDS011;62797;49.740;10.154;2023-04-06T03:52:11;45.20;;;20.67;;
74363;SDS011;62797;49.740;10.154;2023-04-06T03:54:36;35.80;;;18.40;;
74363;SDS011;62797;49.740;10.154;2023-04-06T03:57:03;37.15;;;17.00;;
74363;SDS011;62797;49.740;10.154;2023-04-06T03:59:29;36.35;;;17.55;;
74363;SDS011;62797;49.740;10.154;2023-04-06T04:01:55;38.15;;;18.10;;
74363;SDS011;62797;49.740;10.154;2023-04-06T04:04:20;40.15;;;18.45;;
74363;SDS011;62797;49.740;10.154;2023-04-06T04:06:46;39.65;;;18.70;;
74363;SDS011;62797;49.740;10.154;2023-04-06T04:09:12;35.47;;;17.77;;
74363;SDS011;62797;49.740;10.154;2023-04-06T04:11:38;36.85;;;18.00;;
74363;SDS011;62797;49.740;10.154;2023-04-06T04:14:04;38.13;;;18.27;;
74363;SDS011;62797;49.740;10.154;2023-04-06T04:16:30;31.52;;;17.08;;
74363;SDS011;62797;49.740;10.154;2023-04-06T04:18:55;35.42;;;19.15;;
74363;SDS011;62797;49.740;10.154;2023-04-06T04:21:23;37.47;;;17.88;;
74363;SDS011;62797;49.740;10.154;2023-04-06T04:23:48;43.15;;;20.52;;
74363;SDS011;62797;49.740;10.154;2023-04-06T04:26:14;41.38;;;20.50;;
74363;SDS011;62797;49.740;10.154;2023-04-06T04:28:43;35.28;;;18.95;;
74363;SDS011;62797;49.740;10.154;2023-04-06T04:31:08;36.97;;;19.77;;
74363;SDS011;62797;49.740;10.154;2023-04-06T04:33:34;37.55;;;16.27;;
74363;SDS011;62797;49.740;10.154;2023-04-06T04:36:05;35.85;;;18.10;;
74363;SDS011;62797;49.740;10.154;2023-04-06T04:38:37;33.95;;;19.10;;
74363;SDS011;62797;49.740;10.154;2023-04-06T04:41:02;35.55;;;16.92;;
74363;SDS011;62797;49.740;10.154;2023-04-06T04:45:58;36.78;;;16.95;;
74363;SDS011;62797;49.740;10.154;2023-04-06T04:48:38;52.90;;;19.65;;
74363;SDS011;62797;49.740;10.154;2023-04-06T04:51:05;38.25;;;18.85;;
74363;SDS011;62797;49.740;10.154;2023-04-06T04:53:48;34.13;;;15.55;;
74363;SDS011;62797;49.740;10.154;2023-04-06T04:56:19;37.58;;;18.30;;
74363;SDS011;62797;49.740;10.154;2023-04-06T04:58:48;38.53;;;19.48;;
74363;SDS011;62797;49.740;10.154;2023-04-06T05:01:14;34.10;;;18.40;;
74363;SDS011;62797;49.740;10.154;2023-04-06T05:03:41;32.30;;;16.90;;
74363;SDS011;62797;49.740;10.154;2023-04-06T05:06:11;39.40;;;19.65;;
74363;SDS011;62797;49.740;10.154;2023-04-06T05:08:39;45.83;;;21.67;;
74363;SDS011;62797;49.740;10.154;2023-04-06T05:11:05;33.63;;;15.57;;
74363;SDS011;62797;49.740;10.154;2023-04-06T05:13:36;36.92;;;15.65;;
74363;SDS011;62797;49.740;10.154;2023-04-06T05:16:08;36.25;;;17.98;;
74363;SDS011;62797;49.740;10.154;2023-04-06T05:18:37;31.33;;;16.15;;
74363;SDS011;62797;49.740;10.154;2023-04-06T05:21:04;39.80;;;19.48;;
74363;SDS011;62797;49.740;10.154;2023-04-06T05:23:50;29.88;;;15.90;;
74363;SDS011;62797;49.740;10.154;2023-04-06T05:26:16;41.42;;;19.08;;
74363;SDS011;62797;49.740;10.154;2023-04-06T05:28:41;31.63;;;16.92;;
74363;SDS011;62797;49.740;10.154;2023-04-06T05:31:09;38.78;;;19.23;;
74363;SDS011;62797;49.740;10.154;2023-04-06T05:33:44;45.13;;;18.77;;
74363;SDS011;62797;49.740;10.154;2023-04-06T05:36:13;33.80;;;18.70;;
74363;SDS011;62797;49.740;10.154;2023-04-06T05:38:42;46.53;;;19.20;;
74363;SDS011;62797;49.740;10.154;2023-04-06T05:41:18;34.80;;;19.00;;
74363;SDS011;62797;49.740;10.154;2023-04-06T05:43:44;35.15;;;18.55;;
74363;SDS011;62797;49.740;10.154;2023-04-06T05:46:10;35.50;;;17.90;;
74363;SDS011;62797;49.740;10.154;2023-04-06T05:48:35;36.20;;;18.75;;
74363;SDS011;62797;49.740;10.154;2023-04-06T05:51:02;47.67;;;23.98;;
74363;SDS011;62797;49.740;10.154;2023-04-06T05:53:38;51.25;;;22.38;;
74363;SDS011;62797;49.740;10.154;2023-04-06T05:56:03;38.40;;;19.27;;
74363;SDS011;62797;49.740;10.154;2023-04-06T05:58:29;51.05;;;20.70;;
74363;SDS011;62797;49.740;10.154;2023-04-06T06:00:59;36.45;;;19.67;;
74363;SDS011;62797;49.740;10.154;2023-04-06T06:03:33;42.25;;;20.35;;
74363;SDS011;62797;49.740;10.154;2023-04-06T06:06:00;40.20;;;20.42;;
74363;SDS011;62797;49.740;10.154;2023-04-06T06:08:32;37.67;;;18.40;;
74363;SDS011;62797;49.740;10.154;2023-04-06T06:11:01;33.88;;;15.85;;
74363;SDS011;62797;49.740;10.154;2023-04-06T06:15:53;40.35;;;19.27;;
74363;SDS011;62797;49.740;10.154;2023-04-06T06:18:21;30.48;;;16.85;;
74363;SDS011;62797;49.740;10.154;2023-04-06T06:20:49;37.72;;;17.85;;
74363;SDS011;62797;49.740;10.154;2023-04-06T06:23:15;26.10;;;15.38;;
74363;SDS011;62797;49.740;10.154;2023-04-06T06:25:41;32.97;;;17.25;;
74363;SDS011;62797;49.740;10.154;2023-04-06T06:28:07;38.80;;;19.27;;
74363;SDS011;62797;49.740;10.154;2023-04-06T06:30:34;26.13;;;14.93;;
74363;SDS011;62797;49.740;10.154;2023-04-06T06:32:59;27.27;;;14.10;;
74363;SDS011;62797;49.740;10.154;2023-04-06T06:35:26;32.42;;;17.77;;
74363;SDS011;62797;49.740;10.154;2023-04-06T06:37:52;29.30;;;14.73;;
74363;SDS011;62797;49.740;10.154;2023-04-06T06:40:21;30.55;;;14.70;;
74363;SDS011;62797;49.740;10.154;2023-04-06T06:42:49;29.15;;;15.27;;
74363;SDS011;62797;49.740;10.154;2023-04-06T06:45:25;29.50;;;15.97;;
74363;SDS011;62797;49.740;10.154;2023-04-06T06:47:51;26.65;;;13.60;;
74363;SDS011;62797;49.740;10.154;2023-04-06T06:50:16;32.67;;;15.45;;
74363;SDS011;62797;49.740;10.154;2023-04-06T06:52:44;34.25;;;16.92;;
74363;SDS011;62797;49.740;10.154;2023-04-06T06:55:09;39.17;;;18.33;;
74363;SDS011;62797;49.740;10.154;2023-04-06T06:57:36;27.58;;;16.27;;
74363;SDS011;62797;49.740;10.154;2023-04-06T07:00:04;32.13;;;15.30;;
74363;SDS011;62797;49.740;10.154;2023-04-06T07:02:33;32.00;;;17.88;;
74363;SDS011;62797;49.740;10.154;2023-04-06T07:04:59;31.40;;;16.15;;
74363;SDS011;62797;49.740;10.154;2023-04-06T07:07:25;38.13;;;17.48;;
74363;SDS011;62797;49.740;10.154;2023-04-06T07:09:51;37.90;;;18.47;;
74363;SDS011;62797;49.740;10.154;2023-04-06T07:12:16;27.67;;;15.87;;
74363;SDS011;62797;49.740;10.154;2023-04-06T07:14:42;34.70;;;16.67;;
74363;SDS011;62797;49.740;10.154;2023-04-06T07:17:07;26.67;;;13.77;;
74363;SDS011;62797;49.740;10.154;2023-04-06T07:19:34;26.38;;;15.18;;
74363;SDS011;62797;49.740;10.154;2023-04-06T07:22:00;27.58;;;14.65;;
74363;SDS011;62797;49.740;10.154;2023-04-06T07:24:27;30.83;;;15.68;;
74363;SDS011;62797;49.740;10.154;2023-04-06T07:26:55;28.30;;;16.27;;
74363;SDS011;62797;49.740;10.154;2023-04-06T07:29:22;24.75;;;15.55;;
74363;SDS011;62797;49.740;10.154;2023-04-06T07:31:48;31.73;;;15.82;;
74363;SDS011;62797;49.740;10.154;2023-04-06T07:34:15;32.22;;;15.20;;
74363;SDS011;62797;49.740;10.154;2023-04-06T07:36:41;25.30;;;14.70;;
74363;SDS011;62797;49.740;10.154;2023-04-06T07:39:07;29.05;;;16.20;;
74363;SDS011;62797;49.740;10.154;2023-04-06T07:41:34;34.97;;;16.42;;
74363;SDS011;62797;49.740;10.154;2023-04-06T07:44:00;30.58;;;14.68;;
74363;SDS011;62797;49.740;10.154;2023-04-06T07:46:25;25.47;;;14.87;;
74363;SDS011;62797;49.740;10.154;2023-04-06T07:48:52;26.83;;;14.27;;
74363;SDS011;62797;49.740;10.154;2023-04-06T07:51:18;27.10;;;13.90;;
74363;SDS011;62797;49.740;10.154;2023-04-06T07:53:44;24.33;;;14.55;;
74363;SDS011;62797;49.740;10.154;2023-04-06T07:56:10;26.67;;;14.63;;
74363;SDS011;62797;49.740;10.154;2023-04-06T07:58:37;25.90;;;14.40;;
74363;SDS011;62797;49.740;10.154;2023-04-06T08:01:03;24.92;;;14.45;;
74363;SDS011;62797;49.740;10.154;2023-04-06T08:03:29;27.92;;;14.88;;
74363;SDS011;62797;49.740;10.154;2023-04-06T08:05:54;30.07;;;14.40;;
74363;SDS011;62797;49.740;10.154;2023-04-06T08:08:20;27.50;;;14.38;;
74363;SDS011;62797;49.740;10.154;2023-04-06T08:13:13;27.92;;;14.52;;
74363;SDS011;62797;49.740;10.154;2023-04-06T08:15:40;26.92;;;15.13;;
74363;SDS011;62797;49.740;10.154;2023-04-06T08:18:05;24.67;;;13.87;;
74363;SDS011;62797;49.740;10.154;2023-04-06T08:20:31;21.47;;;13.77;;
74363;SDS011;62797;49.740;10.154;2023-04-06T08:22:57;28.13;;;12.83;;
74363;SDS011;62797;49.740;10.154;2023-04-06T08:25:22;26.10;;;13.50;;
74363;SDS011;62797;49.740;10.154;2023-04-06T08:27:48;25.90;;;15.45;;
74363;SDS011;62797;49.740;10.154;2023-04-06T08:30:13;25.63;;;13.60;;
74363;SDS011;62797;49.740;10.154;2023-04-06T08:32:41;23.35;;;14.52;;
74363;SDS011;62797;49.740;10.154;2023-04-06T08:35:07;21.40;;;14.20;;
74363;SDS011;62797;49.740;10.154;2023-04-06T08:37:33;25.20;;;15.32;;
74363;SDS011;62797;49.740;10.154;2023-04-06T08:39:59;22.50;;;12.43;;
74363;SDS011;62797;49.740;10.154;2023-04-06T08:42:25;21.67;;;12.52;;
74363;SDS011;62797;49.740;10.154;2023-04-06T08:44:53;22.02;;;12.45;;
74363;SDS011;62797;49.740;10.154;2023-04-06T08:47:20;24.17;;;12.27;;
74363;SDS011;62797;49.740;10.154;2023-04-06T08:49:47;18.50;;;12.32;;
74363;SDS011;62797;49.740;10.154;2023-04-06T08:52:13;23.17;;;13.10;;
74363;SDS011;62797;49.740;10.154;2023-04-06T08:54:42;22.85;;;11.95;;
74363;SDS011;62797;49.740;10.154;2023-04-06T08:57:08;23.60;;;13.20;;
74363;SDS011;62797;49.740;10.154;2023-04-06T08:59:34;19.55;;;12.60;;
74363;SDS011;62797;49.740;10.154;2023-04-06T09:02:00;18.17;;;12.73;;
74363;SDS011;62797;49.740;10.154;2023-04-06T09:04:30;21.80;;;13.00;;
74363;SDS011;62797;49.740;10.154;2023-04-06T09:06:57;28.90;;;13.50;;
74363;SDS011;62797;49.740;10.154;2023-04-06T09:09:24;22.80;;;12.82;;
74363;SDS011;62797;49.740;10.154;2023-04-06T09:11:50;23.38;;;14.02;;
74363;SDS011;62797;49.740;10.154;2023-04-06T09:14:17;28.50;;;12.13;;
74363;SDS011;62797;49.740;10.154;2023-04-06T09:17:02;25.58;;;12.70;;
74363;SDS011;62797;49.740;10.154;2023-04-06T09:19:27;23.43;;;11.57;;
74363;SDS011;62797;49.740;10.154;2023-04-06T09:22:05;22.23;;;12.70;;
74363;SDS011;62797;49.740;10.154;2023-04-06T09:24:44;20.90;;;12.82;;
74363;SDS011;62797;49.740;10.154;2023-04-06T09:27:12;23.60;;;12.40;;
74363;SDS011;62797;49.740;10.154;2023-04-06T09:29:38;22.00;;;13.30;;
74363;SDS011;62797;49.740;10.154;2023-04-06T09:32:06;21.23;;;12.07;;
74363;SDS011;62797;49.740;10.154;2023-04-06T09:34:42;22.52;;;13.20;;
74363;SDS011;62797;49.740;10.154;2023-04-06T09:39:39;21.48;;;13.63;;
74363;SDS011;62797;49.740;10.154;2023-04-06T09:42:05;24.05;;;13.07;;
74363;SDS011;62797;49.740;10.154;2023-04-06T09:44:31;21.70;;;13.20;;
74363;SDS011;62797;49.740;10.154;2023-04-06T09:46:59;21.03;;;12.53;;
74363;SDS011;62797;49.740;10.154;2023-04-06T09:49:29;19.83;;;12.55;;
74363;SDS011;62797;49.740;10.154;2023-04-06T09:52:01;21.10;;;12.13;;
74363;SDS011;62797;49.740;10.154;2023-04-06T09:54:29;20.92;;;11.65;;
74363;SDS011;62797;49.740;10.154;2023-04-06T09:56:56;22.10;;;12.93;;
74363;SDS011;62797;49.740;10.154;2023-04-06T10:02:32;21.95;;;12.88;;
74363;SDS011;62797;49.740;10.154;2023-04-06T10:08:04;23.20;;;11.93;;
74363;SDS011;62797;49.740;10.154;2023-04-06T10:10:32;22.13;;;12.93;;
74363;SDS011;62797;49.740;10.154;2023-04-06T10:12:58;21.48;;;13.13;;
74363;SDS011;62797;49.740;10.154;2023-04-06T10:15:24;29.45;;;14.15;;
74363;SDS011;62797;49.740;10.154;2023-04-06T10:17:50;24.33;;;12.55;;
74363;SDS011;62797;49.740;10.154;2023-04-06T10:23:01;20.75;;;11.75;;
74363;SDS011;62797;49.740;10.154;2023-04-06T10:25:51;27.27;;;12.82;;
74363;SDS011;62797;49.740;10.154;2023-04-06T10:28:24;18.05;;;11.02;;
74363;SDS011;62797;49.740;10.154;2023-04-06T10:33:26;18.02;;;10.82;;
74363;SDS011;62797;49.740;10.154;2023-04-06T10:38:19;19.23;;;12.13;;
74363;SDS011;62797;49.740;10.154;2023-04-06T10:40:49;22.38;;;13.02;;
74363;SDS011;62797;49.740;10.154;2023-04-06T10:43:18;18.90;;;11.63;;
74363;SDS011;62797;49.740;10.154;2023-04-06T10:45:52;22.52;;;12.20;;
74363;SDS011;62797;49.740;10.154;2023-04-06T10:48:21;20.23;;;12.63;;
74363;SDS011;62797;49.740;10.154;2023-04-06T10:50:47;21.23;;;11.50;;
74363;SDS011;62797;49.740;10.154;2023-04-06T10:53:23;19.90;;;12.57;;
74363;SDS011;62797;49.740;10.154;2023-04-06T10:55:50;23.67;;;13.13;;
74363;SDS011;62797;49.740;10.154;2023-04-06T10:58:17;21.15;;;13.48;;
74363;SDS011;62797;49.740;10.154;2023-04-06T11:00:44;25.35;;;13.35;;
74363;SDS011;62797;49.740;10.154;2023-04-06T11:03:14;20.30;;;12.07;;
74363;SDS011;62797;49.740;10.154;2023-04-06T11:05:44;21.25;;;12.93;;
74363;SDS011;62797;49.740;10.154;2023-04-06T11:08:10;20.27;;;12.80;;
74363;SDS011;62797;49.740;10.154;2023-04-06T11:10:47;19.63;;;9.20;;
74363;SDS011;62797;49.740;10.154;2023-04-06T11:13:14;28.02;;;12.38;;
74363;SDS011;62797;49.740;10.154;2023-04-06T11:15:39;19.20;;;10.70;;
74363;SDS011;62797;49.740;10.154;2023-04-06T11:18:05;23.52;;;12.35;;
74363;SDS011;62797;49.740;10.154;2023-04-06T11:20:31;18.53;;;11.20;;
74363;SDS011;62797;49.740;10.154;2023-04-06T11:22:57;22.73;;;12.33;;
74363;SDS011;62797;49.740;10.154;2023-04-06T11:25:24;19.25;;;10.68;;
74363;SDS011;62797;49.740;10.154;2023-04-06T11:27:52;20.17;;;12.02;;
74363;SDS011;62797;49.740;10.154;2023-04-06T11:32:45;20.60;;;11.48;;
74363;SDS011;62797;49.740;10.154;2023-04-06T11:35:20;16.83;;;11.10;;
74363;SDS011;62797;49.740;10.154;2023-04-06T11:37:49;17.77;;;10.00;;
74363;SDS011;62797;49.740;10.154;2023-04-06T11:40:15;19.08;;;11.55;;
74363;SDS011;62797;49.740;10.154;2023-04-06T11:42:51;18.98;;;11.70;;
74363;SDS011;62797;49.740;10.154;2023-04-06T11:45:18;18.52;;;12.40;;
74363;SDS011;62797;49.740;10.154;2023-04-06T11:47:55;19.58;;;11.27;;
74363;SDS011;62797;49.740;10.154;2023-04-06T11:50:31;15.73;;;9.95;;
74363;SDS011;62797;49.740;10.154;2023-04-06T11:53:01;19.23;;;10.73;;
74363;SDS011;62797;49.740;10.154;2023-04-06T11:55:28;17.95;;;10.45;;
74363;SDS011;62797;49.740;10.154;2023-04-06T11:57:53;24.23;;;12.77;;
74363;SDS011;62797;49.740;10.154;2023-04-06T12:00:19;25.30;;;13.40;;
74363;SDS011;62797;49.740;10.154;2023-04-06T12:02:46;19.10;;;11.27;;
74363;SDS011;62797;49.740;10.154;2023-04-06T12:07:38;16.45;;;9.63;;
74363;SDS011;62797;49.740;10.154;2023-04-06T12:10:04;19.43;;;9.70;;
74363;SDS011;62797;49.740;10.154;2023-04-06T12:12:30;17.48;;;10.52;;
74363;SDS011;62797;49.740;10.154;2023-04-06T12:14:56;18.23;;;11.68;;
74363;SDS011;62797;49.740;10.154;2023-04-06T12:17:22;15.27;;;9.88;;
74363;SDS011;62797;49.740;10.154;2023-04-06T12:19:48;18.60;;;9.60;;
74363;SDS011;62797;49.740;10.154;2023-04-06T12:22:14;18.73;;;9.57;;
74363;SDS011;62797;49.740;10.154;2023-04-06T12:24:40;18.27;;;10.38;;
74363;SDS011;62797;49.740;10.154;2023-04-06T12:27:06;18.97;;;11.00;;
74363;SDS011;62797;49.740;10.154;2023-04-06T12:29:31;16.13;;;9.68;;
74363;SDS011;62797;49.740;10.154;2023-04-06T12:31:57;20.45;;;10.40;;
74363;SDS011;62797;49.740;10.154;2023-04-06T12:34:23;17.40;;;11.17;;
74363;SDS011;62797;49.740;10.154;2023-04-06T12:36:48;21.17;;;12.27;;
74363;SDS011;62797;49.740;10.154;2023-04-06T12:39:15;16.52;;;9.65;;
74363;SDS011;62797;49.740;10.154;2023-04-06T12:41:41;21.63;;;11.73;;
74363;SDS011;62797;49.740;10.154;2023-04-06T12:44:07;17.93;;;10.83;;
74363;SDS011;62797;49.740;10.154;2023-04-06T12:46:33;17.20;;;10.97;;
74363;SDS011;62797;49.740;10.154;2023-04-06T12:48:58;16.50;;;10.90;;
74363;SDS011;62797;49.740;10.154;2023-04-06T12:51:26;16.20;;;11.87;;
74363;SDS011;62797;49.740;10.154;2023-04-06T12:53:52;16.88;;;11.25;;
74363;SDS011;62797;49.740;10.154;2023-04-06T12:56:19;19.13;;;10.05;;
74363;SDS011;62797;49.740;10.154;2023-04-06T12:58:46;16.27;;;9.30;;
74363;SDS011;62797;49.740;10.154;2023-04-06T13:01:12;15.40;;;9.43;;
74363;SDS011;62797;49.740;10.154;2023-04-06T13:03:38;15.07;;;9.48;;
74363;SDS011;62797;49.740;10.154;2023-04-06T13:06:09;15.57;;;10.23;;
74363;SDS011;62797;49.740;10.154;2023-04-06T13:08:36;17.92;;;10.70;;
74363;SDS011;62797;49.740;10.154;2023-04-06T13:11:03;18.92;;;10.77;;
74363;SDS011;62797;49.740;10.154;2023-04-06T13:13:30;19.38;;;11.80;;
74363;SDS011;62797;49.740;10.154;2023-04-06T13:16:00;14.15;;;7.82;;
74363;SDS011;62797;49.740;10.154;2023-04-06T13:18:27;15.30;;;10.02;;
74363;SDS011;62797;49.740;10.154;2023-04-06T13:20:54;14.80;;;9.98;;
74363;SDS011;62797;49.740;10.154;2023-04-06T13:23:21;14.68;;;9.73;;
74363;SDS011;62797;49.740;10.154;2023-04-06T13:25:47;15.00;;;9.25;;
74363;SDS011;62797;49.740;10.154;2023-04-06T13:28:13;15.27;;;9.60;;
74363;SDS011;62797;49.740;10.154;2023-04-06T13:30:38;13.60;;;8.93;;
74363;SDS011;62797;49.740;10.154;2023-04-06T13:33:04;14.73;;;9.87;;
74363;SDS011;62797;49.740;10.154;2023-04-06T13:35:31;14.77;;;8.48;;
74363;SDS011;62797;49.740;10.154;2023-04-06T13:37:57;18.10;;;9.05;;
74363;SDS011;62797;49.740;10.154;2023-04-06T13:40:23;13.97;;;7.83;;
74363;SDS011;62797;49.740;10.154;2023-04-06T13:42:48;11.17;;;8.10;;
74363;SDS011;62797;49.740;10.154;2023-04-06T13:45:15;13.93;;;7.90;;
74363;SDS011;62797;49.740;10.154;2023-04-06T13:47:41;14.68;;;8.73;;
74363;SDS011;62797;49.740;10.154;2023-04-06T13:50:07;12.30;;;7.63;;
74363;SDS011;62797;49.740;10.154;2023-04-06T13:52:33;11.55;;;7.18;;
74363;SDS011;62797;49.740;10.154;2023-04-06T13:55:01;11.32;;;7.32;;
74363;SDS011;62797;49.740;10.154;2023-04-06T13:57:27;12.88;;;7.88;;
74363;SDS011;62797;49.740;10.154;2023-04-06T13:59:54;24.42;;;9.25;;
74363;SDS011;62797;49.740;10.154;2023-04-06T14:02:20;12.70;;;8.17;;
74363;SDS011;62797;49.740;10.154;2023-04-06T14:04:52;10.32;;;7.50;;
74363;SDS011;62797;49.740;10.154;2023-04-06T14:07:20;21.00;;;9.80;;
74363;SDS011;62797;49.740;10.154;2023-04-06T14:09:46;15.80;;;9.55;;
74363;SDS011;62797;49.740;10.154;2023-04-06T14:12:12;19.63;;;10.07;;
74363;SDS011;62797;49.740;10.154;2023-04-06T14:14:37;10.50;;;7.17;;
74363;SDS011;62797;49.740;10.154;2023-04-06T14:17:06;29.10;;;8.07;;
74363;SDS011;62797;49.740;10.154;2023-04-06T14:19:31;18.30;;;9.07;;
74363;SDS011;62797;49.740;10.154;2023-04-06T14:21:57;14.97;;;7.90;;
74363;SDS011;62797;49.740;10.154;2023-04-06T14:24:22;9.60;;;6.90;;
74363;SDS011;62797;49.740;10.154;2023-04-06T14:26:48;13.77;;;7.50;;
74363;SDS011;62797;49.740;10.154;2023-04-06T14:29:14;9.03;;;6.03;;
74363;SDS011;62797;49.740;10.154;2023-04-06T14:31:40;10.63;;;8.20;;
74363;SDS011;62797;49.740;10.154;2023-04-06T14:34:06;10.65;;;7.35;;
74363;SDS011;62797;49.740;10.154;2023-04-06T14:36:32;11.63;;;7.47;;
74363;SDS011;62797;49.740;10.154;2023-04-06T14:39:04;12.55;;;6.75;;
74363;SDS011;62797;49.740;10.154;2023-04-06T14:41:30;13.55;;;7.90;;
74363;SDS011;62797;49.740;10.154;2023-04-06T14:43:56;13.07;;;7.38;;
74363;SDS011;62797;49.740;10.154;2023-04-06T14:46:23;16.52;;;9.75;;
74363;SDS011;62797;49.740;10.154;2023-04-06T14:48:48;12.17;;;9.20;;